Marfa, TX (79843)

10:37 PM CST on February 19, 2017 (GMT -0600)
Marfa Municipal | | Change Station

Elev 4849 ft 30.37 °N, 104.02 °W | Updated 41 minutes ago

Partly Cloudy
Partly Cloudy
47 °F
Feels Like 47 °F
N
9
Wind Variable Wind from NW

Today
High -- | Low -- °F
--% Chance of Precip.
Yesterday
High -- | Low -- °F
Precip. -- in
Pressure 29.95 in
Visibility 10.0 miles
Clouds Clear
Dew Point 22 °F
Humidity 37%
Rainfall 0.00 in
Snow Depth Not available.
7:32 AM 6:47 PM
Last Quarter, 37% visible
METAR KMRF 200356Z AUTO 31008KT 10SM CLR 08/M06 A3002 RMK AO2 SLP141 T00831056
Pressure 29.95 in
Visibility 10.0 miles
Clouds Clear
Dew Point 22 °F
Humidity 37%
Rainfall 0.00 in
Snow Depth Not available.
7:32 AM 6:47 PM
Last Quarter, 37% visible
METAR KMRF 200356Z AUTO 31008KT 10SM CLR 08/M06 A3002 RMK AO2 SLP141 T00831056

Get Your Daily Forecast Email!

Thanks for signing up!

Be on the lookout for a verification email in your inbox.

You'll start receiving the daily forecast at 8 AM.

×

10-Day Weather Forecast

Almanac

Astronomy

Feb. 19, 2017 Rise Set
Actual Time
Civil Twilight
Nautical Twilight
Astronomical Twilight
Moon
Length of Visible Light
Length of Day
Tomorrow will be .
, % of the Moon is Illuminated

Today's Extremes

State Highs State Lows

Community

WunderPhotos

Upload Photos

1,962,540 photos uploaded!

WunderBlog® & News

Nearby

Air Quality

  Air Quality AQ Index Pollutant
Not available.

Snow Depth

Station Depth Elevation

Earthquake Activity

City Distance Mag. Time & Date
Minimum magnitude displayed is 2.5.

Coastal Water Temperatures

Place Temperature

Stations

Nearby Weather Stations

Station Location Temp. Windchill Dew Point Humidity Wind Precip. Elev Updated Type
                   

Watches & Warnings

There are currently no watches in effect.